Time;durP1;ratioP1;P1;durP2;ratioP2;P2;SDS_P1;SDS_P2;PMS_P1;PMS_P2;Temp;Humidity;BMP_temperature;BMP_pressure;BME280_temperature;BME280_humidity;BME280_pressure;Samples;Min_cycle;Max_cycle;Signal;HPM_P1;HPM_P2
2022/05/07 00:01:28;;;;;;;0.20;0.20;;;13.00;99.90;;;;;;5030867;28;20512;-63
2022/05/07 00:03:54;;;;;;;5.07;0.47;;;13.10;99.90;;;;;;5032636;28;20029;-63
2022/05/07 00:06:20;;;;;;;0.45;0.45;;;13.10;99.90;;;;;;5032565;28;20504;-64
2022/05/07 00:08:45;;;;;;;2.25;1.10;;;12.90;99.90;;;;;;5031032;28;20067;-64
2022/05/07 00:11:15;;;;;;;0.28;0.28;;;12.60;99.90;;;;;;5032438;28;20032;-64
2022/05/07 00:13:41;;;;;;;0.13;0.13;;;12.40;99.90;;;;;;5029426;28;20033;-63
2022/05/07 00:18:51;;;;;;;0.10;0.10;;;12.00;99.90;;;;;;5032457;28;20102;-64
2022/05/07 00:21:17;;;;;;;0.03;0.03;;;12.20;99.90;;;;;;5032560;28;20112;-63
2022/05/07 00:23:43;;;;;;;0.10;0.10;;;12.00;99.90;;;;;;5032537;28;20034;-63
2022/05/07 00:26:08;;;;;;;0.00;0.00;;;12.20;99.90;;;;;;5032300;28;20033;-64
2022/05/07 00:28:36;;;;;;;0.20;0.20;;;12.00;99.90;;;;;;5014182;28;20029;-63
2022/05/07 00:31:01;;;;;;;0.15;0.15;;;11.90;99.90;;;;;;5032014;28;20493;-63
2022/05/07 00:33:27;;;;;;;0.00;0.00;;;11.80;99.90;;;;;;5030882;28;20091;-63
2022/05/07 00:35:53;;;;;;;2.55;0.52;;;11.80;99.90;;;;;;5031990;28;20124;-63
2022/05/07 00:38:18;;;;;;;0.22;0.22;;;11.70;99.90;;;;;;5032168;28;20036;-63
2022/05/07 00:40:44;;;;;;;4.97;0.45;;;11.90;99.90;;;;;;5031724;28;20025;-63
2022/05/07 00:43:15;;;;;;;0.00;0.00;;;11.90;99.90;;;;;;5032035;28;20036;-63
2022/05/07 00:45:49;;;;;;;0.15;0.05;;;12.10;99.90;;;;;;5032081;28;20032;-63
2022/05/07 00:48:16;;;;;;;0.10;0.10;;;12.10;99.90;;;;;;5032041;28;20037;-63
2022/05/07 00:53:30;;;;;;;0.10;0.10;;;11.80;99.90;;;;;;5010862;28;20515;-63
2022/05/07 00:55:56;;;;;;;2.17;1.30;;;11.70;99.90;;;;;;5010678;28;20124;-63
2022/05/07 00:58:22;;;;;;;0.10;0.10;;;11.70;99.90;;;;;;5011649;28;20068;-63
2022/05/07 01:00:48;;;;;;;0.13;0.13;;;11.70;99.90;;;;;;5010543;28;20037;-63
2022/05/07 01:03:14;;;;;;;0.30;0.30;;;11.70;99.90;;;;;;5011931;28;20021;-63
2022/05/07 01:05:40;;;;;;;0.22;0.17;;;11.70;99.90;;;;;;5018843;28;20037;-63
2022/05/07 01:08:10;;;;;;;0.80;0.80;;;11.80;99.90;;;;;;5017229;28;20486;-63
2022/05/07 01:10:37;;;;;;;0.85;0.85;;;11.90;99.90;;;;;;5022799;28;20519;-63
2022/05/07 01:13:02;;;;;;;0.20;0.20;;;12.00;99.90;;;;;;5009296;28;20386;-63
2022/05/07 01:15:28;;;;;;;0.65;0.65;;;12.10;99.90;;;;;;5017795;28;20033;-63
2022/05/07 01:17:54;;;;;;;0.00;0.00;;;12.10;99.90;;;;;;5030125;28;20077;-63
2022/05/07 01:20:19;;;;;;;0.00;0.00;;;12.10;99.90;;;;;;5030883;28;20034;-63
2022/05/07 01:22:46;;;;;;;0.63;0.63;;;12.00;99.90;;;;;;5029911;28;20037;-63
2022/05/07 01:25:12;;;;;;;0.03;0.03;;;11.80;99.90;;;;;;4997625;28;20088;-63
2022/05/07 01:27:38;;;;;;;0.17;0.17;;;11.70;99.90;;;;;;5011388;28;20485;-63
2022/05/07 01:30:05;;;;;;;6.03;0.98;;;11.70;99.90;;;;;;5010289;28;20041;-63
2022/05/07 01:32:31;;;;;;;0.40;0.40;;;11.70;99.90;;;;;;5011084;28;20079;-62
2022/05/07 01:34:57;;;;;;;0.00;0.00;;;11.60;99.90;;;;;;5011396;28;20029;-62
2022/05/07 01:37:23;;;;;;;0.10;0.10;;;11.50;99.90;;;;;;5009775;28;20030;-63
2022/05/07 01:39:49;;;;;;;0.13;0.13;;;11.40;99.90;;;;;;5010755;28;20058;-63
2022/05/07 01:42:14;;;;;;;0.20;0.20;;;11.30;99.90;;;;;;5026731;28;20061;-62
2022/05/07 01:44:40;;;;;;;0.35;0.35;;;11.20;99.90;;;;;;5029612;28;20103;-63
2022/05/07 01:49:50;;;;;;;0.17;0.17;;;11.20;99.90;;;;;;5030674;28;20439;-63
2022/05/07 01:52:16;;;;;;;0.00;0.00;;;11.40;99.90;;;;;;5030635;28;20067;-62
2022/05/07 01:54:42;;;;;;;0.00;0.00;;;11.50;99.90;;;;;;5030634;28;20105;-62
2022/05/07 01:57:08;;;;;;;0.10;0.10;;;11.60;99.90;;;;;;5030480;28;20147;-63
2022/05/07 01:59:34;;;;;;;2.72;0.90;;;11.60;99.90;;;;;;5030199;28;20459;-63
2022/05/07 02:01:59;;;;;;;2.53;1.65;;;11.60;99.90;;;;;;5027361;28;20025;-63
2022/05/07 02:04:25;;;;;;;0.43;0.40;;;11.60;99.90;;;;;;5030422;28;20049;-63
2022/05/07 02:06:52;;;;;;;0.22;0.22;;;11.60;99.90;;;;;;5030653;28;20057;-63
2022/05/07 02:09:18;;;;;;;1.27;1.17;;;11.70;99.90;;;;;;5030180;28;20378;-64
2022/05/07 02:11:44;;;;;;;0.25;0.25;;;11.70;99.90;;;;;;5029318;28;20022;-63
2022/05/07 02:14:10;;;;;;;0.00;0.00;;;11.70;99.90;;;;;;5029226;28;20025;-64
2022/05/07 02:16:36;;;;;;;0.05;0.05;;;11.70;99.90;;;;;;5013613;28;20397;-64
2022/05/07 02:19:02;;;;;;;0.25;0.25;;;11.70;99.90;;;;;;5009261;28;20030;-63
2022/05/07 02:21:28;;;;;;;0.00;0.00;;;11.70;99.90;;;;;;5033210;22;20189;-61
2022/05/07 02:23:54;;;;;;;0.28;0.28;;;11.70;99.90;;;;;;5030083;28;20485;-61
2022/05/07 02:26:20;;;;;;;0.10;0.10;;;11.70;99.90;;;;;;5034695;28;20071;-61
2022/05/07 02:28:45;;;;;;;0.03;0.03;;;11.60;99.90;;;;;;5034248;28;20111;-61
2022/05/07 02:31:11;;;;;;;0.35;0.35;;;11.60;99.90;;;;;;5034436;28;20033;-61
2022/05/07 02:33:37;;;;;;;0.10;0.10;;;11.50;99.90;;;;;;5034314;28;20037;-61
2022/05/07 02:36:03;;;;;;;1.13;1.08;;;11.40;99.90;;;;;;5034401;28;20531;-61
2022/05/07 02:38:29;;;;;;;0.20;0.20;;;11.30;99.90;;;;;;5032689;28;20156;-61
2022/05/07 02:43:39;;;;;;;0.00;0.00;;;11.20;99.90;;;;;;5034167;28;20048;-63
2022/05/07 02:46:09;;;;;;;0.00;0.00;;;11.10;99.90;;;;;;5034161;28;20051;-61
2022/05/07 02:48:36;;;;;;;0.83;0.83;;;11.10;99.90;;;;;;5033906;28;20037;-61
2022/05/07 02:51:02;;;;;;;0.50;0.35;;;11.00;99.90;;;;;;5039782;28;20116;-61
2022/05/07 02:53:28;;;;;;;0.80;0.50;;;11.00;99.90;;;;;;5053939;28;20025;-62
2022/05/07 02:55:54;;;;;;;0.00;0.00;;;10.70;99.90;;;;;;5052849;28;20392;-61
2022/05/07 02:58:20;;;;;;;0.75;0.30;;;10.60;99.90;;;;;;5052512;28;20025;-61
2022/05/07 03:00:48;;;;;;;3.00;1.33;;;10.30;99.90;;;;;;5053610;28;20032;-61
2022/05/07 03:03:14;;;;;;;0.25;0.25;;;10.20;99.90;;;;;;5052317;28;20037;-62
2022/05/07 03:05:39;;;;;;;0.10;0.10;;;10.20;99.90;;;;;;5053928;28;20056;-62
2022/05/07 03:08:05;;;;;;;0.00;0.00;;;10.00;99.90;;;;;;5052334;28;20449;-62
2022/05/07 03:10:31;;;;;;;0.10;0.10;;;10.10;99.90;;;;;;5052224;28;20032;-61
2022/05/07 03:12:57;;;;;;;0.10;0.10;;;10.10;99.90;;;;;;5053369;28;20116;-61
2022/05/07 03:15:24;;;;;;;1.50;0.88;;;9.90;99.90;;;;;;5044298;28;20026;-61
2022/05/07 03:17:49;;;;;;;0.80;0.80;;;10.00;99.90;;;;;;5033742;28;20053;-62
2022/05/07 03:20:17;;;;;;;0.10;0.10;;;9.80;99.90;;;;;;5033941;28;20500;-61
2022/05/07 03:22:45;;;;;;;0.00;0.00;;;9.60;99.90;;;;;;5053123;28;20036;-61
2022/05/07 03:25:11;;;;;;;0.50;0.50;;;9.50;99.90;;;;;;5052119;28;20112;-62
2022/05/07 03:27:38;;;;;;;0.13;0.13;;;9.40;99.90;;;;;;5052155;28;20079;-61
2022/05/07 03:30:07;;;;;;;1.65;0.75;;;9.40;99.90;;;;;;5051518;28;20044;-61
2022/05/07 03:32:33;;;;;;;0.03;0.03;;;9.50;99.90;;;;;;5053310;28;20040;-61
2022/05/07 03:34:59;;;;;;;0.47;0.47;;;9.70;99.90;;;;;;5051016;28;20033;-62
2022/05/07 03:37:26;;;;;;;0.10;0.10;;;9.90;99.90;;;;;;5053015;28;20029;-61
2022/05/07 03:39:52;;;;;;;0.13;0.13;;;9.90;99.90;;;;;;5052563;28;20487;-62
2022/05/07 03:42:20;;;;;;;0.40;0.40;;;10.00;99.90;;;;;;5053039;28;20049;-63
2022/05/07 03:44:49;;;;;;;0.13;0.13;;;10.00;99.90;;;;;;5053005;28;20056;-62
2022/05/07 03:47:15;;;;;;;0.30;0.30;;;10.10;99.90;;;;;;5052956;28;20033;-63
2022/05/07 03:49:40;;;;;;;0.00;0.00;;;10.30;99.90;;;;;;5052550;28;20040;-63
2022/05/07 03:54:51;;;;;;;0.20;0.20;;;10.40;99.90;;;;;;5052626;28;20434;-63
2022/05/07 03:57:16;;;;;;;0.25;0.25;;;10.30;99.90;;;;;;5052624;28;20032;-63
2022/05/07 03:59:43;;;;;;;0.05;0.05;;;10.00;99.90;;;;;;5052688;28;20028;-63
2022/05/07 04:02:09;;;;;;;0.52;0.52;;;9.80;99.90;;;;;;5051482;28;20031;-63
2022/05/07 04:04:35;;;;;;;0.03;0.03;;;9.80;99.90;;;;;;5051437;28;20021;-62
2022/05/07 04:07:02;;;;;;;0.00;0.00;;;9.80;99.90;;;;;;5032986;28;20557;-62
2022/05/07 04:09:28;;;;;;;1.38;1.27;;;9.80;99.90;;;;;;5030887;28;20102;-62
2022/05/07 04:11:54;;;;;;;0.03;0.03;;;9.80;99.90;;;;;;5031274;28;20474;-62
2022/05/07 04:14:19;;;;;;;0.22;0.22;;;9.90;99.90;;;;;;5032599;28;20469;-62
2022/05/07 04:16:46;;;;;;;0.35;0.28;;;9.90;99.90;;;;;;5031104;28;20033;-62
2022/05/07 04:19:13;;;;;;;0.00;0.00;;;10.00;99.90;;;;;;5032414;28;20037;-62
2022/05/07 04:21:39;;;;;;;0.28;0.28;;;10.00;99.90;;;;;;5044290;28;20037;-62
2022/05/07 04:24:06;;;;;;;0.05;0.05;;;9.90;99.90;;;;;;5051056;28;20028;-61
2022/05/07 04:26:31;;;;;;;0.10;0.10;;;10.10;99.90;;;;;;5042543;28;20370;-62
2022/05/07 04:28:57;;;;;;;0.00;0.00;;;10.10;99.90;;;;;;5031843;28;20044;-62
2022/05/07 04:31:24;;;;;;;0.00;0.00;;;10.20;99.90;;;;;;5032308;28;20037;-62
2022/05/07 04:33:51;;;;;;;0.22;0.22;;;10.40;99.90;;;;;;5030726;28;20079;-62
2022/05/07 04:36:16;;;;;;;1.92;1.02;;;10.50;99.90;;;;;;5031866;28;20392;-62
2022/05/07 04:38:42;;;;;;;0.10;0.10;;;10.30;99.90;;;;;;5013801;28;20092;-62
2022/05/07 04:41:08;;;;;;;0.10;0.10;;;10.20;99.90;;;;;;5030570;28;20033;-62
2022/05/07 04:43:34;;;;;;;0.30;0.30;;;10.20;99.90;;;;;;5030711;28;20021;-62
2022/05/07 04:45:59;;;;;;;0.10;0.10;;;9.90;99.90;;;;;;5032128;28;20040;-62
2022/05/07 04:48:25;;;;;;;0.28;0.28;;;10.00;99.90;;;;;;5030511;28;20033;-62
2022/05/07 04:50:51;;;;;;;0.00;0.00;;;10.00;99.90;;;;;;5037048;28;20033;-61
2022/05/07 04:53:16;;;;;;;0.17;0.17;;;9.90;99.90;;;;;;5051528;28;20032;-63
2022/05/07 04:55:42;;;;;;;1.48;0.55;;;9.90;99.90;;;;;;5051517;28;20033;-62
2022/05/07 04:58:08;;;;;;;0.28;0.28;;;10.00;99.90;;;;;;5051607;28;20033;-62
2022/05/07 05:00:33;;;;;;;0.52;0.52;;;10.00;99.90;;;;;;5049574;28;20044;-64
2022/05/07 05:02:59;;;;;;;0.10;0.10;;;10.20;99.90;;;;;;5051052;28;20124;-62
2022/05/07 05:05:25;;;;;;;0.85;0.85;;;10.40;99.90;;;;;;5051363;28;20052;-62
2022/05/07 05:07:52;;;;;;;0.85;0.57;;;10.50;99.90;;;;;;5051501;28;20141;-60
2022/05/07 05:10:20;;;;;;;0.38;0.28;;;10.60;99.90;;;;;;5049834;28;20434;-61
2022/05/07 05:12:46;;;;;;;0.10;0.10;;;10.60;99.90;;;;;;5033541;28;20143;-62
2022/05/07 05:15:13;;;;;;;0.75;0.75;;;10.70;99.90;;;;;;5043603;28;20490;-62
2022/05/07 05:17:41;;;;;;;0.30;0.20;;;10.90;99.90;;;;;;5029916;28;20080;-62
2022/05/07 05:20:08;;;;;;;0.38;0.38;;;11.00;99.90;;;;;;5030681;28;20535;-62
2022/05/07 05:22:34;;;;;;;0.15;0.15;;;11.10;99.90;;;;;;5050512;28;20028;-62
2022/05/07 05:24:59;;;;;;;0.50;0.50;;;11.10;99.90;;;;;;5050913;28;20530;-62
2022/05/07 05:28:13;;;;;;;0.47;0.47;;;11.20;99.90;;;;;;5051063;28;20033;-66
2022/05/07 05:30:39;;;;;;;2.10;1.00;;;11.20;99.90;;;;;;5049399;28;20045;-62
2022/05/07 05:33:05;;;;;;;0.63;0.63;;;11.30;99.90;;;;;;5050600;28;20032;-62
2022/05/07 05:35:31;;;;;;;0.00;0.00;;;11.40;99.90;;;;;;5050981;28;20056;-62
2022/05/07 05:37:56;;;;;;;0.52;0.52;;;11.40;99.90;;;;;;5050695;28;20634;-61
2022/05/07 05:40:22;;;;;;;0.65;0.63;;;11.40;99.90;;;;;;5050239;28;20036;-62
2022/05/07 05:42:48;;;;;;;1.13;1.08;;;11.50;99.90;;;;;;5050552;28;20132;-62
2022/05/07 05:45:14;;;;;;;0.30;0.30;;;11.60;99.90;;;;;;5050425;28;20025;-64
2022/05/07 05:47:39;;;;;;;0.20;0.20;;;11.70;99.90;;;;;;5050382;28;20024;-63
2022/05/07 05:50:05;;;;;;;11.68;1.65;;;11.70;99.90;;;;;;5050525;28;20056;-63
2022/05/07 05:52:32;;;;;;;0.22;0.22;;;11.80;99.90;;;;;;5050544;28;20119;-62
2022/05/07 05:54:58;;;;;;;0.10;0.10;;;11.70;99.90;;;;;;5050602;28;20025;-63
2022/05/07 05:57:23;;;;;;;0.30;0.30;;;11.90;99.90;;;;;;5050518;28;20041;-62
2022/05/07 05:59:49;;;;;;;1.50;1.40;;;12.00;99.90;;;;;;5049512;28;20082;-61
2022/05/07 06:02:18;;;;;;;0.40;0.40;;;12.00;99.90;;;;;;5031923;28;20072;-62
2022/05/07 06:04:44;;;;;;;0.20;0.20;;;12.10;99.90;;;;;;5030383;28;20056;-62
2022/05/07 06:07:10;;;;;;;1.05;0.95;;;12.20;99.90;;;;;;5030246;28;20040;-62
2022/05/07 06:09:35;;;;;;;0.90;0.85;;;12.40;99.90;;;;;;5028847;28;20033;-62
2022/05/07 06:12:01;;;;;;;0.00;0.00;;;12.40;99.90;;;;;;5030342;28;20080;-63
2022/05/07 06:14:27;;;;;;;0.68;0.68;;;12.50;99.90;;;;;;5028854;28;20029;-62
2022/05/07 06:16:52;;;;;;;0.00;0.00;;;12.50;99.90;;;;;;5030437;28;20040;-62
2022/05/07 06:19:18;;;;;;;0.30;0.20;;;12.70;99.90;;;;;;5029925;28;20436;-63
2022/05/07 06:21:44;;;;;;;0.22;0.22;;;12.80;99.90;;;;;;5042998;28;20036;-62
2022/05/07 06:29:38;;;;;;;0.43;0.43;;;13.00;99.90;;;;;;5049734;28;20033;-62
2022/05/07 06:32:04;;;;;;;0.40;0.40;;;12.90;99.90;;;;;;5049995;28;20036;-61
2022/05/07 06:34:30;;;;;;;0.47;0.47;;;13.00;99.90;;;;;;5050164;28;20031;-62
2022/05/07 06:36:57;;;;;;;0.40;0.40;;;13.10;99.90;;;;;;5050208;28;20128;-62
2022/05/07 06:39:23;;;;;;;4.45;3.50;;;13.10;99.90;;;;;;5049797;28;20051;-62
2022/05/07 06:41:51;;;;;;;1.35;1.25;;;13.20;99.90;;;;;;5048934;28;20029;-62
2022/05/07 06:44:16;;;;;;;0.00;0.00;;;13.40;99.90;;;;;;5050046;28;20052;-62
2022/05/07 06:46:42;;;;;;;1.10;0.77;;;13.50;99.90;;;;;;5050023;28;20061;-62
2022/05/07 06:49:08;;;;;;;0.00;0.00;;;13.60;99.90;;;;;;5048473;28;20033;-63
2022/05/07 06:51:35;;;;;;;0.28;0.28;;;13.70;99.90;;;;;;5038427;28;20044;-61
2022/05/07 06:54:00;;;;;;;0.35;0.35;;;13.60;99.90;;;;;;5030005;28;20120;-63
2022/05/07 06:56:26;;;;;;;0.17;0.17;;;13.70;99.90;;;;;;5029800;28;20116;-62
2022/05/07 06:58:52;;;;;;;0.77;0.77;;;13.70;99.90;;;;;;5028756;28;20029;-62
2022/05/07 07:01:18;;;;;;;0.00;0.00;;;13.80;99.90;;;;;;5030077;28;20447;-62
2022/05/07 07:03:44;;;;;;;0.80;0.38;;;13.90;99.90;;;;;;5028662;28;20025;-62
2022/05/07 07:06:09;;;;;;;0.73;0.73;;;13.80;99.90;;;;;;5029989;28;20041;-62
2022/05/07 07:08:35;;;;;;;0.70;0.47;;;14.00;99.90;;;;;;5029541;28;20477;-62
2022/05/07 07:11:01;;;;;;;3.60;2.15;;;14.10;99.90;;;;;;5032573;28;20477;-62
2022/05/07 07:13:27;;;;;;;0.82;0.82;;;14.20;99.90;;;;;;5033506;28;20091;-62
2022/05/07 07:15:52;;;;;;;0.00;0.00;;;14.40;99.90;;;;;;5032111;28;20030;-62
2022/05/07 07:18:18;;;;;;;0.10;0.10;;;14.50;99.90;;;;;;5033021;28;20029;-66
2022/05/07 07:20:48;;;;;;;0.60;0.50;;;14.60;99.90;;;;;;5036480;28;20025;-63
2022/05/07 07:23:14;;;;;;;0.40;0.40;;;14.60;99.90;;;;;;5051721;28;20028;-63
2022/05/07 07:25:41;;;;;;;0.10;0.10;;;14.70;99.90;;;;;;5053605;28;20086;-62
2022/05/07 07:28:12;;;;;;;0.90;0.77;;;14.80;99.90;;;;;;5053061;28;20032;-63
2022/05/07 07:30:38;;;;;;;0.43;0.35;;;14.70;99.90;;;;;;5052787;28;20029;-62
2022/05/07 07:33:05;;;;;;;0.22;0.22;;;14.80;99.90;;;;;;5051640;28;20025;-62
2022/05/07 07:35:31;;;;;;;0.60;0.60;;;14.90;99.90;;;;;;5051310;28;20053;-62
2022/05/07 07:37:57;;;;;;;0.10;0.10;;;14.80;99.90;;;;;;5034810;28;20124;-62
2022/05/07 07:40:23;;;;;;;1.17;1.00;;;14.90;99.90;;;;;;5052592;28;20021;-62
2022/05/07 07:42:49;;;;;;;0.15;0.15;;;15.10;99.90;;;;;;5052745;28;20103;-62
2022/05/07 07:48:01;;;;;;;0.00;0.00;;;15.40;99.90;;;;;;5051892;28;20472;-62
2022/05/07 07:50:32;;;;;;;0.52;0.52;;;15.30;99.90;;;;;;5034782;28;20029;-63
2022/05/07 07:53:08;;;;;;;3.38;2.35;;;15.40;99.90;;;;;;5051739;28;20056;-62
2022/05/07 07:55:37;;;;;;;0.40;0.40;;;15.60;99.90;;;;;;5035108;28;20032;-62
2022/05/07 07:58:08;;;;;;;0.00;0.00;;;15.60;99.90;;;;;;5051188;28;20021;-62
2022/05/07 08:00:36;;;;;;;0.00;0.00;;;15.70;99.90;;;;;;5051051;28;20025;-62
2022/05/07 08:03:09;;;;;;;1.17;0.93;;;15.90;99.90;;;;;;5049447;28;20032;-63
2022/05/07 08:05:36;;;;;;;0.43;0.43;;;16.00;99.90;;;;;;5032061;28;20030;-63
2022/05/07 08:13:37;;;;;;;1.35;0.85;;;16.40;99.90;;;;;;4991935;28;20037;-62
2022/05/07 08:16:05;;;;;;;1.00;0.47;;;16.40;99.90;;;;;;5030400;28;20061;-62
2022/05/07 08:18:31;;;;;;;0.55;0.55;;;16.60;99.90;;;;;;5030604;28;20029;-63
2022/05/07 08:20:57;;;;;;;0.20;0.20;;;16.70;99.90;;;;;;5036345;28;20032;-62
2022/05/07 08:23:24;;;;;;;0.68;0.50;;;16.80;99.90;;;;;;5051346;28;20041;-62
2022/05/07 08:25:51;;;;;;;0.52;0.52;;;17.00;99.90;;;;;;5044854;28;20021;-62
2022/05/07 08:28:17;;;;;;;0.93;0.80;;;17.10;99.90;;;;;;5030827;28;20028;-64
2022/05/07 08:30:43;;;;;;;2.55;1.10;;;17.20;99.90;;;;;;5031855;28;20037;-63
2022/05/07 08:33:09;;;;;;;2.40;0.88;;;17.30;99.90;;;;;;5031705;28;20132;-63
2022/05/07 08:35:35;;;;;;;0.45;0.35;;;17.30;99.90;;;;;;5031820;28;20024;-63
2022/05/07 08:38:01;;;;;;;0.32;0.32;;;17.30;99.90;;;;;;5030389;28;20389;-64
2022/05/07 08:40:27;;;;;;;0.30;0.30;;;17.40;99.90;;;;;;5030066;28;20025;-64
2022/05/07 08:42:55;;;;;;;0.17;0.17;;;17.50;99.80;;;;;;5031326;28;20033;-64
2022/05/07 08:45:21;;;;;;;0.10;0.10;;;17.70;99.30;;;;;;5031530;28;20018;-63
2022/05/07 08:47:51;;;;;;;0.47;0.47;;;17.90;99.00;;;;;;5030248;28;20037;-63
2022/05/07 08:50:17;;;;;;;0.05;0.05;;;17.90;98.90;;;;;;5032657;28;20033;-62
2022/05/07 08:52:44;;;;;;;0.22;0.22;;;18.00;98.80;;;;;;5051272;28;20140;-63
2022/05/07 08:55:18;;;;;;;0.30;0.30;;;18.10;98.90;;;;;;5050296;28;20043;-64
2022/05/07 08:57:48;;;;;;;0.80;0.20;;;18.30;98.60;;;;;;5035099;28;20037;-62
2022/05/07 09:00:17;;;;;;;0.47;0.47;;;18.40;98.30;;;;;;5030936;28;20108;-64
2022/05/07 09:02:52;;;;;;;0.00;0.00;;;18.50;98.10;;;;;;5031228;28;20028;-62
2022/05/07 09:05:20;;;;;;;0.50;0.50;;;18.80;98.00;;;;;;5030068;28;20519;-64
2022/05/07 09:07:58;;;;;;;0.17;0.17;;;18.90;96.50;;;;;;5030191;28;20030;-64
2022/05/07 09:10:36;;;;;;;0.10;0.10;;;19.00;95.80;;;;;;5030801;28;20529;-63
2022/05/07 09:13:11;;;;;;;0.35;0.30;;;19.20;96.10;;;;;;5029672;28;20627;-63
2022/05/07 09:15:48;;;;;;;0.10;0.10;;;19.20;95.10;;;;;;5030998;28;20037;-63
2022/05/07 09:18:15;;;;;;;3.90;1.33;;;19.40;94.90;;;;;;5029968;28;20750;-64
2022/05/07 09:20:41;;;;;;;1.85;0.60;;;19.60;95.20;;;;;;5033813;28;20032;-63
2022/05/07 09:23:10;;;;;;;0.00;0.00;;;19.70;95.10;;;;;;5033077;28;20036;-63
2022/05/07 09:25:45;;;;;;;0.20;0.20;;;19.80;94.60;;;;;;5051013;28;20044;-63
2022/05/07 09:28:11;;;;;;;1.85;0.60;;;19.90;94.30;;;;;;5049388;28;20562;-63
2022/05/07 09:30:38;;;;;;;0.25;0.22;;;19.80;93.80;;;;;;5050596;28;20057;-64
2022/05/07 09:33:06;;;;;;;0.00;0.00;;;20.00;94.70;;;;;;5046129;28;20025;-63
2022/05/07 09:35:50;;;;;;;0.38;0.38;;;20.20;93.50;;;;;;5010152;28;20040;-63
2022/05/07 09:38:24;;;;;;;0.00;0.00;;;20.30;92.90;;;;;;5030586;28;20120;-63
2022/05/07 09:40:51;;;;;;;0.10;0.05;;;20.30;93.10;;;;;;4999899;28;20040;-63
2022/05/07 09:43:17;;;;;;;0.25;0.22;;;20.40;92.50;;;;;;5029305;28;20025;-64
2022/05/07 09:45:44;;;;;;;0.03;0.03;;;20.40;91.60;;;;;;5013044;28;20064;-71
2022/05/07 09:48:12;;;;;;;0.47;0.28;;;20.50;91.80;;;;;;5030961;28;20024;-63
2022/05/07 09:58:42;;;;;;;0.35;0.35;;;21.00;91.80;;;;;;5037883;28;20399;-66
2022/05/07 10:01:58;;;;;;;0.03;0.03;;;21.10;91.60;;;;;;5028933;28;20776;-66
2022/05/07 10:04:30;;;;;;;0.05;0.05;;;21.30;90.90;;;;;;5029876;28;20056;-66
2022/05/07 10:07:26;;;;;;;0.30;0.30;;;21.60;90.90;;;;;;5029680;28;20021;-65
2022/05/07 10:10:29;;;;;;;0.25;0.25;;;21.80;88.90;;;;;;5027464;28;20408;-67
2022/05/07 10:12:59;;;;;;;0.10;0.10;;;22.20;85.40;;;;;;5010135;28;20117;-66
2022/05/07 10:15:26;;;;;;;0.00;0.00;;;22.50;85.10;;;;;;5009204;28;20030;-65
2022/05/07 10:18:07;;;;;;;0.00;0.00;;;22.50;83.50;;;;;;5009087;28;20406;-64
2022/05/07 10:20:44;;;;;;;;;;;22.20;84.30;;;;;;5016226;28;20033;-64
2022/05/07 10:23:30;;;;;;;0.00;0.00;;;22.20;84.30;;;;;;5049864;28;19948;-66
2022/05/07 10:25:58;;;;;;;0.98;0.43;;;22.70;83.10;;;;;;5049978;28;20025;-66
2022/05/07 10:28:38;;;;;;;0.20;0.15;;;22.80;81.00;;;;;;5048761;28;20033;-66
2022/05/07 10:31:18;;;;;;;0.00;0.00;;;22.90;81.30;;;;;;5048788;28;20427;-66
2022/05/07 10:33:44;;;;;;;0.10;0.10;;;22.80;81.20;;;;;;5048761;28;20094;-66
2022/05/07 10:36:10;;;;;;;1.55;0.63;;;22.50;79.40;;;;;;5032928;28;20037;-66
2022/05/07 10:38:39;;;;;;;0.30;0.30;;;22.80;78.20;;;;;;5029761;28;20025;-65
2022/05/07 10:41:18;;;;;;;0.57;0.57;;;23.00;77.80;;;;;;5028669;28;20091;-66
2022/05/07 10:43:56;;;;;;;0.00;0.00;;;23.20;75.40;;;;;;5029037;28;20034;-66
2022/05/07 10:46:23;;;;;;;0.10;0.10;;;23.10;73.30;;;;;;5033680;28;20056;-67
2022/05/07 10:48:57;;;;;;;0.00;0.00;;;23.10;74.00;;;;;;5015618;28;20040;-67
2022/05/07 10:51:50;;;;;;;0.13;0.13;;;23.30;74.20;;;;;;5042124;28;20069;-67
2022/05/07 10:54:27;;;;;;;0.08;0.00;;;23.40;73.10;;;;;;5052960;28;20039;-66
2022/05/07 10:56:56;;;;;;;0.00;0.00;;;23.90;73.60;;;;;;5054008;28;20111;-65
2022/05/07 10:59:24;;;;;;;0.00;0.00;;;24.30;73.20;;;;;;5053542;28;20028;-65
2022/05/07 11:01:51;;;;;;;0.00;0.00;;;24.50;70.40;;;;;;5046494;28;20041;-65
2022/05/07 11:04:22;;;;;;;0.20;0.13;;;24.70;68.50;;;;;;5015625;28;20424;-66
2022/05/07 11:06:52;;;;;;;0.00;0.00;;;24.90;66.90;;;;;;5016377;28;20039;-66
2022/05/07 11:09:22;;;;;;;0.03;0.03;;;24.90;67.50;;;;;;5032159;28;20060;-66
2022/05/07 11:11:54;;;;;;;0.20;0.17;;;23.90;68.90;;;;;;5032218;28;20083;-65
2022/05/07 11:14:32;;;;;;;0.45;0.45;;;24.30;70.00;;;;;;5033465;28;20030;-65
2022/05/07 11:17:06;;;;;;;0.57;0.25;;;24.50;70.40;;;;;;5032532;28;20025;-65
2022/05/07 11:19:37;;;;;;;0.28;0.22;;;23.60;71.40;;;;;;5031970;28;20060;-65
2022/05/07 11:22:10;;;;;;;0.00;0.00;;;23.50;70.00;;;;;;5047104;28;20068;-72
2022/05/07 11:24:37;;;;;;;0.10;0.10;;;24.10;69.40;;;;;;5053292;28;20477;-63
2022/05/07 11:27:07;;;;;;;0.75;0.20;;;23.70;68.30;;;;;;5051869;28;20028;-68
2022/05/07 11:29:34;;;;;;;0.00;0.00;;;23.70;68.00;;;;;;5052699;28;20033;-64
2022/05/07 11:32:07;;;;;;;0.10;0.10;;;24.10;66.60;;;;;;5048922;28;20125;-64
2022/05/07 11:34:42;;;;;;;0.10;0.10;;;24.60;66.10;;;;;;5033087;28;20029;-63
2022/05/07 11:37:23;;;;;;;0.03;0.03;;;24.50;66.80;;;;;;5031089;28;20472;-63
2022/05/07 11:39:57;;;;;;;0.57;0.38;;;24.10;66.20;;;;;;5031085;28;20397;-64
2022/05/07 11:42:38;;;;;;;0.25;0.25;;;24.50;68.40;;;;;;5032339;28;20092;-65
2022/05/07 11:45:27;;;;;;;0.00;0.00;;;24.40;67.60;;;;;;5033112;28;20041;-66
2022/05/07 11:48:02;;;;;;;0.00;0.00;;;24.90;66.00;;;;;;5032984;28;20029;-64
2022/05/07 11:50:40;;;;;;;0.30;0.15;;;24.60;66.80;;;;;;5032500;28;20486;-65
2022/05/07 11:53:20;;;;;;;0.45;0.35;;;24.80;66.20;;;;;;5032757;28;20480;-64
2022/05/07 11:55:47;;;;;;;;;;;24.70;65.20;;;;;;5032866;28;20088;-67
2022/05/07 11:58:22;;;;;;;0.05;0.05;;;24.90;65.20;;;;;;5030993;28;20000;-65
2022/05/07 12:00:55;;;;;;;0.00;0.00;;;25.10;64.50;;;;;;5030757;28;20036;-67
2022/05/07 12:03:26;;;;;;;0.25;0.20;;;24.90;64.50;;;;;;5029697;28;20105;-65
2022/05/07 12:05:59;;;;;;;3.60;1.30;;;24.70;63.20;;;;;;5027133;28;20082;-71
2022/05/07 12:08:32;;;;;;;0.90;0.77;;;25.30;64.50;;;;;;5032192;28;20473;-72
2022/05/07 12:10:58;;;;;;;0.80;0.30;;;24.60;61.80;;;;;;5031201;28;20051;-71
2022/05/07 12:13:25;;;;;;;0.68;0.68;;;24.60;63.10;;;;;;5028155;28;20640;-71
2022/05/07 12:18:49;;;;;;;0.30;0.30;;;25.10;61.40;;;;;;5011441;28;20026;-68
2022/05/07 12:21:15;;;;;;;1.77;0.38;;;25.00;61.40;;;;;;5029619;28;20031;-68
2022/05/07 12:31:55;;;;;;;0.17;0.15;;;26.90;60.00;;;;;;5052208;28;20223;-70
2022/05/07 12:34:21;;;;;;;0.00;0.00;;;26.40;60.00;;;;;;5052239;28;20392;-71
2022/05/07 12:36:48;;;;;;;0.00;0.00;;;25.80;58.10;;;;;;5011591;28;20506;-72
2022/05/07 12:39:14;;;;;;;0.00;0.00;;;25.90;59.70;;;;;;5012101;28;20030;-70
2022/05/07 12:41:42;;;;;;;0.00;0.00;;;25.60;59.80;;;;;;5012189;28;20057;-71
2022/05/07 12:44:08;;;;;;;0.00;0.00;;;25.20;59.50;;;;;;5010767;28;20056;-69
2022/05/07 12:46:34;;;;;;;4.43;1.55;;;25.10;60.60;;;;;;5011087;28;20568;-71
2022/05/07 12:49:02;;;;;;;0.08;0.03;;;25.20;60.10;;;;;;5010536;28;20112;-73
2022/05/07 12:51:28;;;;;;;0.00;0.00;;;25.40;60.30;;;;;;5032972;28;20037;-70
2022/05/07 12:53:54;;;;;;;0.00;0.00;;;26.00;57.90;;;;;;5033565;28;20488;-68
2022/05/07 12:56:24;;;;;;;0.10;0.10;;;25.20;58.90;;;;;;5050650;28;20029;-67
2022/05/07 12:58:50;;;;;;;2.73;1.73;;;25.00;59.60;;;;;;5051396;28;20508;-68
2022/05/07 13:01:16;;;;;;;4.47;1.75;;;25.50;61.30;;;;;;5051674;28;20041;-68
2022/05/07 13:03:43;;;;;;;0.20;0.20;;;25.80;60.20;;;;;;5051545;28;20021;-67
2022/05/07 13:06:09;;;;;;;0.00;0.00;;;25.50;59.20;;;;;;5051258;28;20029;-68
2022/05/07 13:08:34;;;;;;;0.20;0.20;;;26.00;59.20;;;;;;5050907;28;20508;-67
2022/05/07 13:11:00;;;;;;;0.00;0.00;;;27.00;59.10;;;;;;5051102;28;20536;-67
2022/05/07 13:13:26;;;;;;;1.35;0.65;;;26.90;58.70;;;;;;5033189;28;20117;-66
2022/05/07 13:15:52;;;;;;;0.00;0.00;;;26.80;57.80;;;;;;5033422;28;20389;-68
2022/05/07 13:18:18;;;;;;;0.13;0.00;;;26.10;58.60;;;;;;5033517;28;20039;-69
2022/05/07 13:20:44;;;;;;;0.38;0.17;;;25.90;59.10;;;;;;5051066;28;20503;-71
2022/05/07 13:23:15;;;;;;;0.30;0.20;;;26.00;60.50;;;;;;5050898;28;20044;-71
2022/05/07 13:25:41;;;;;;;0.00;0.00;;;26.10;59.90;;;;;;5051133;28;20028;-71
2022/05/07 13:28:07;;;;;;;0.00;0.00;;;26.90;59.00;;;;;;5049873;28;20041;-66
2022/05/07 13:30:33;;;;;;;0.43;0.28;;;26.50;57.50;;;;;;5049578;28;20040;-73
2022/05/07 13:32:59;;;;;;;0.00;0.00;;;27.50;57.90;;;;;;5049716;28;20060;-70
2022/05/07 13:35:25;;;;;;;0.13;0.13;;;27.50;56.70;;;;;;5049636;28;20068;-71
2022/05/07 13:37:51;;;;;;;0.10;0.10;;;28.20;57.00;;;;;;5047383;28;20025;-71
2022/05/07 13:40:17;;;;;;;0.15;0.08;;;28.10;54.90;;;;;;5027480;28;20021;-70